Time;durP1;ratioP1;P1;durP2;ratioP2;P2;SDS_P1;SDS_P2;PMS_P1;PMS_P2;Temp;Humidity;BMP_temperature;BMP_pressure;BME280_temperature;BME280_humidity;BME280_pressure;Samples;Min_cycle;Max_cycle;Signal;HPM_P1;HPM_P2
2022/08/04 00:00:22;;;;;;;7.20;3.33;;;19.40;99.90;;;;;;5043478;28;20048;-76
2022/08/04 00:02:58;;;;;;;9.40;3.60;;;19.40;99.90;;;;;;5044335;28;20051;-76
2022/08/04 00:05:32;;;;;;;6.53;3.10;;;19.40;99.90;;;;;;5029323;28;20045;-76
2022/08/04 00:08:05;;;;;;;7.37;3.40;;;19.40;99.90;;;;;;5008591;28;20059;-76
2022/08/04 00:10:33;;;;;;;7.32;4.22;;;19.40;99.90;;;;;;5027837;28;20059;-76
2022/08/04 00:13:01;;;;;;;10.13;4.20;;;19.40;99.90;;;;;;5043338;28;20079;-76
2022/08/04 00:15:31;;;;;;;7.63;4.33;;;19.40;99.90;;;;;;5045094;28;20060;-76
2022/08/04 00:18:00;;;;;;;10.33;4.70;;;19.40;99.90;;;;;;5045213;28;20389;-77
2022/08/04 00:20:32;;;;;;;13.57;5.40;;;19.40;99.90;;;;;;5032517;28;20045;-76
2022/08/04 00:22:59;;;;;;;9.17;4.03;;;19.40;99.90;;;;;;5013004;28;20053;-77
2022/08/04 00:25:25;;;;;;;10.77;4.10;;;19.40;99.90;;;;;;5042605;28;20083;-76
2022/08/04 00:27:51;;;;;;;12.47;4.07;;;19.40;99.90;;;;;;5044278;28;20037;-76
2022/08/04 00:30:16;;;;;;;12.57;4.63;;;19.40;99.90;;;;;;5025546;28;20049;-76
2022/08/04 00:32:42;;;;;;;10.83;5.50;;;19.30;99.90;;;;;;5044991;28;20049;-76
2022/08/04 00:35:11;;;;;;;12.93;5.97;;;19.30;99.90;;;;;;5028108;28;20598;-76
2022/08/04 00:37:41;;;;;;;10.80;5.10;;;19.30;99.90;;;;;;5039205;28;20059;-76
2022/08/04 00:40:21;;;;;;;9.63;4.93;;;19.30;99.90;;;;;;5040410;28;20110;-76
2022/08/04 00:42:50;;;;;;;11.30;4.90;;;19.30;99.90;;;;;;5027673;28;20044;-76
2022/08/04 00:45:47;;;;;;;10.90;4.57;;;19.30;99.90;;;;;;5011071;28;20421;-76
2022/08/04 00:48:27;;;;;;;10.43;5.20;;;19.30;99.90;;;;;;5049658;28;20528;-76
2022/08/04 00:51:08;;;;;;;11.80;5.37;;;19.30;99.90;;;;;;5041757;28;20037;-76
2022/08/04 00:53:46;;;;;;;10.30;5.13;;;19.30;99.90;;;;;;5030625;28;20049;-76
2022/08/04 00:56:36;;;;;;;10.20;4.93;;;19.30;99.90;;;;;;5026501;28;20049;-77
2022/08/04 00:59:09;;;;;;;11.67;5.47;;;19.30;99.90;;;;;;5027627;28;20152;-76
2022/08/04 01:01:51;;;;;;;14.68;6.32;;;19.30;99.90;;;;;;5026256;28;20416;-76
2022/08/04 01:04:28;;;;;;;9.30;5.73;;;19.30;99.90;;;;;;5012923;28;20131;-76
2022/08/04 01:07:09;;;;;;;8.63;5.27;;;19.30;99.90;;;;;;5025379;28;20052;-76
2022/08/04 01:09:49;;;;;;;11.43;6.00;;;19.30;99.90;;;;;;5044861;28;20052;-76
2022/08/04 01:12:33;;;;;;;9.30;5.87;;;19.30;99.90;;;;;;5040933;28;20052;-76
2022/08/04 01:15:04;;;;;;;11.10;5.70;;;19.30;99.90;;;;;;5018362;28;20033;-76
2022/08/04 01:17:42;;;;;;;8.00;4.97;;;19.30;99.90;;;;;;5028173;28;20504;-76
2022/08/04 01:20:09;;;;;;;11.50;6.67;;;19.30;99.90;;;;;;5043001;28;20041;-76
2022/08/04 01:23:24;;;;;;;12.63;6.40;;;19.30;99.90;;;;;;5044817;28;20499;-77
2022/08/04 01:26:01;;;;;;;;;;;19.20;99.90;;;;;;5041784;28;20045;-76
2022/08/04 01:28:33;;;;;;;10.57;6.13;;;19.20;99.90;;;;;;5027364;28;19963;-76
2022/08/04 01:31:10;;;;;;;12.33;6.77;;;19.20;99.90;;;;;;5042989;28;20040;-76
2022/08/04 01:33:38;;;;;;;10.83;6.97;;;19.20;99.90;;;;;;5046014;28;20049;-76
2022/08/04 01:36:05;;;;;;;10.47;6.13;;;19.20;99.90;;;;;;5029882;28;20132;-76
2022/08/04 01:38:34;;;;;;;13.67;6.53;;;19.20;99.90;;;;;;5047081;28;20041;-74
2022/08/04 01:41:03;;;;;;;11.97;6.10;;;19.20;99.90;;;;;;5027732;28;20126;-74
2022/08/04 01:43:31;;;;;;;10.47;6.73;;;19.20;99.90;;;;;;5026417;28;20551;-74
2022/08/04 01:45:59;;;;;;;12.50;6.20;;;19.20;99.90;;;;;;5029225;28;20110;-74
2022/08/04 01:48:28;;;;;;;9.53;5.40;;;19.20;99.90;;;;;;5015296;28;20045;-74
2022/08/04 01:50:57;;;;;;;9.50;5.47;;;19.20;99.90;;;;;;5029012;28;20055;-74
2022/08/04 01:53:30;;;;;;;13.87;6.23;;;19.20;99.90;;;;;;5047636;28;20048;-74
2022/08/04 01:55:56;;;;;;;15.07;7.13;;;19.20;99.90;;;;;;5026980;28;20591;-74
2022/08/04 01:58:23;;;;;;;9.83;5.97;;;19.10;99.90;;;;;;5014718;28;20048;-74
2022/08/04 02:00:56;;;;;;;8.90;5.20;;;19.10;99.90;;;;;;5031043;28;20045;-74
2022/08/04 02:03:22;;;;;;;13.60;6.63;;;19.10;99.90;;;;;;5027676;28;20049;-74
2022/08/04 02:05:53;;;;;;;12.10;6.40;;;19.10;99.90;;;;;;5047323;28;20037;-74
2022/08/04 02:08:26;;;;;;;12.20;6.30;;;19.00;99.90;;;;;;5043609;28;20037;-74
2022/08/04 02:11:02;;;;;;;11.50;6.43;;;19.00;99.90;;;;;;5041533;28;20042;-74
2022/08/04 02:13:36;;;;;;;12.10;6.43;;;19.00;99.90;;;;;;5046712;28;20037;-74
2022/08/04 02:16:08;;;;;;;10.47;6.30;;;19.00;99.90;;;;;;5040073;28;20045;-74
2022/08/04 02:18:48;;;;;;;10.50;5.87;;;18.90;99.90;;;;;;5024466;28;20052;-74
2022/08/04 02:21:19;;;;;;;9.83;6.40;;;19.00;99.90;;;;;;5024760;28;20577;-74
2022/08/04 02:23:49;;;;;;;12.03;5.73;;;18.90;99.90;;;;;;5041485;28;20858;-74
2022/08/04 02:26:18;;;;;;;10.10;5.57;;;18.90;99.90;;;;;;5044399;28;20045;-74
2022/08/04 02:28:52;;;;;;;7.57;4.80;;;18.80;99.90;;;;;;5046706;28;20047;-74
2022/08/04 02:31:27;;;;;;;13.03;6.20;;;18.80;99.90;;;;;;5045718;28;20036;-74
2022/08/04 02:34:04;;;;;;;8.03;5.73;;;18.80;99.90;;;;;;5045795;28;20068;-74
2022/08/04 02:36:35;;;;;;;13.87;5.47;;;18.70;99.90;;;;;;5044644;28;20052;-74
2022/08/04 02:39:03;;;;;;;11.60;6.03;;;18.70;99.90;;;;;;5027990;28;20057;-74
2022/08/04 02:41:30;;;;;;;11.00;5.70;;;18.80;99.90;;;;;;5045398;28;20049;-74
2022/08/04 02:43:58;;;;;;;11.87;6.50;;;18.70;99.90;;;;;;5024358;28;20037;-74
2022/08/04 02:46:24;;;;;;;9.13;5.30;;;18.70;99.90;;;;;;5044548;28;20076;-74
2022/08/04 02:48:52;;;;;;;14.57;6.40;;;18.60;99.90;;;;;;5046200;28;20099;-74
2022/08/04 02:51:22;;;;;;;10.60;6.33;;;18.70;99.90;;;;;;5043119;28;20041;-74
2022/08/04 02:53:54;;;;;;;14.10;6.87;;;18.60;99.90;;;;;;5030531;28;20428;-74
2022/08/04 02:56:21;;;;;;;12.83;5.63;;;18.60;99.90;;;;;;5024465;28;20076;-74
2022/08/04 02:58:51;;;;;;;11.20;5.93;;;18.60;99.90;;;;;;5028597;28;20045;-74
2022/08/04 03:01:17;;;;;;;9.73;5.33;;;18.50;99.90;;;;;;5045185;28;20045;-74
2022/08/04 03:03:51;;;;;;;9.53;5.27;;;18.50;99.90;;;;;;5050794;28;20116;-74
2022/08/04 03:06:57;;;;;;;10.23;5.07;;;18.50;99.90;;;;;;5013279;28;20508;-74
2022/08/04 03:09:48;;;;;;;7.53;4.30;;;18.50;99.90;;;;;;4963692;28;20054;-74
2022/08/04 03:12:36;;;;;;;4.57;2.87;;;18.50;99.90;;;;;;5043821;28;20057;-74
2022/08/04 03:15:34;;;;;;;5.57;3.37;;;18.40;99.90;;;;;;5043271;28;20044;-74
2022/08/04 03:18:40;;;;;;;5.17;2.90;;;18.40;99.90;;;;;;5044451;28;20052;-74
2022/08/04 03:21:35;;;;;;;5.70;3.37;;;18.40;99.90;;;;;;5040943;28;20132;-74
2022/08/04 03:24:42;;;;;;;7.23;3.67;;;18.40;99.90;;;;;;5045627;28;20103;-74
2022/08/04 03:27:31;;;;;;;8.17;4.20;;;18.30;99.90;;;;;;5042985;28;20520;-74
2022/08/04 03:30:05;;;;;;;5.03;3.13;;;18.30;99.90;;;;;;5047449;28;20087;-74
2022/08/04 03:33:07;;;;;;;7.53;4.10;;;18.30;99.90;;;;;;5027629;28;20618;-74
2022/08/04 03:36:18;;;;;;;10.07;4.93;;;18.30;99.90;;;;;;5045574;28;20498;-74
2022/08/04 03:39:08;;;;;;;11.10;4.33;;;18.20;99.90;;;;;;5037275;28;20079;-74
2022/08/04 03:42:09;;;;;;;11.13;4.90;;;18.30;99.90;;;;;;5044673;28;20045;-74
2022/08/04 03:45:02;;;;;;;8.17;4.90;;;18.20;99.90;;;;;;5002478;28;20041;-74
2022/08/04 03:48:02;;;;;;;10.07;4.60;;;18.20;99.90;;;;;;5045059;28;20407;-74
2022/08/04 03:54:08;;;;;;;5.97;3.67;;;18.20;99.90;;;;;;5032379;28;20092;-74
2022/08/04 03:56:55;;;;;;;7.97;3.80;;;18.10;99.90;;;;;;5028214;28;20187;-74
2022/08/04 03:59:36;;;;;;;8.70;4.57;;;18.10;99.90;;;;;;5027479;28;20059;-74
2022/08/04 04:02:26;;;;;;;8.93;4.93;;;18.10;99.90;;;;;;5026457;28;20055;-74
2022/08/04 04:05:26;;;;;;;6.33;4.20;;;18.10;99.90;;;;;;5042527;28;20168;-74
2022/08/04 04:08:23;;;;;;;7.70;4.53;;;18.10;99.90;;;;;;5007574;28;20045;-74
2022/08/04 04:11:33;;;;;;;12.00;4.33;;;18.10;99.90;;;;;;5042742;28;20051;-74
2022/08/04 04:14:24;;;;;;;7.50;3.50;;;18.10;99.90;;;;;;5036438;28;20131;-74
2022/08/04 04:17:17;;;;;;;9.63;4.20;;;18.00;99.90;;;;;;5023073;28;20638;-74
2022/08/04 04:20:19;;;;;;;5.43;3.60;;;18.00;99.90;;;;;;5049206;28;20527;-74
2022/08/04 04:22:59;;;;;;;6.47;3.67;;;18.00;99.90;;;;;;5000565;28;20053;-74
2022/08/04 04:25:34;;;;;;;8.33;3.67;;;18.00;99.90;;;;;;5010175;28;20057;-74
2022/08/04 04:28:17;;;;;;;9.93;4.60;;;18.00;99.90;;;;;;5040351;28;20032;-74
2022/08/04 04:30:53;;;;;;;9.50;4.40;;;18.00;99.90;;;;;;5010735;28;20452;-74
2022/08/04 04:33:36;;;;;;;7.20;3.87;;;18.00;99.90;;;;;;5005533;28;20045;-74
2022/08/04 04:36:10;;;;;;;7.80;4.13;;;18.10;99.90;;;;;;5043877;28;20053;-74
2022/08/04 04:38:55;;;;;;;9.50;4.57;;;18.10;99.90;;;;;;5042743;28;20412;-74
2022/08/04 04:41:35;;;;;;;8.17;5.60;;;18.10;99.90;;;;;;5018485;28;20517;-74
2022/08/04 04:44:29;;;;;;;8.97;4.90;;;18.20;99.90;;;;;;5041431;28;20097;-74
2022/08/04 04:47:06;;;;;;;6.57;4.53;;;18.20;99.90;;;;;;5027096;28;20041;-74
2022/08/04 04:49:36;;;;;;;7.10;4.33;;;18.20;99.90;;;;;;5010514;28;20053;-74
2022/08/04 04:52:08;;;;;;;8.37;4.63;;;18.30;99.90;;;;;;5024893;28;20637;-74
2022/08/04 04:54:39;;;;;;;12.47;4.80;;;18.30;99.90;;;;;;5027771;28;20048;-74
2022/08/04 04:57:11;;;;;;;9.23;4.30;;;18.30;99.90;;;;;;5043497;28;20041;-74
2022/08/04 04:59:43;;;;;;;6.67;4.03;;;18.30;99.90;;;;;;5040865;28;20128;-74
2022/08/04 05:02:35;;;;;;;8.87;3.90;;;18.30;99.90;;;;;;5027535;28;20059;-74
2022/08/04 05:05:13;;;;;;;6.97;4.20;;;18.30;99.90;;;;;;5042218;28;20056;-74
2022/08/04 05:07:59;;;;;;;8.97;4.60;;;18.40;99.90;;;;;;5047033;28;20048;-74
2022/08/04 05:10:50;;;;;;;8.43;4.03;;;18.40;99.90;;;;;;5046070;28;20044;-74
2022/08/04 05:13:32;;;;;;;8.10;5.07;;;18.50;99.90;;;;;;5027567;28;20045;-74
2022/08/04 05:16:04;;;;;;;14.20;6.43;;;18.50;99.90;;;;;;5047757;28;20045;-74
2022/08/04 05:18:36;;;;;;;11.80;5.47;;;18.60;99.90;;;;;;5047461;28;20123;-74
2022/08/04 05:21:17;;;;;;;12.53;6.73;;;18.70;99.90;;;;;;5025363;28;20051;-74
2022/08/04 05:23:47;;;;;;;16.77;6.47;;;18.80;99.90;;;;;;5045677;28;20051;-74
2022/08/04 05:26:17;;;;;;;9.43;6.43;;;18.90;99.90;;;;;;5047591;28;20389;-74
2022/08/04 05:28:50;;;;;;;9.77;6.53;;;19.00;99.90;;;;;;5046860;28;20045;-74
2022/08/04 05:31:21;;;;;;;11.75;6.40;;;19.00;99.90;;;;;;5048390;28;20115;-74
2022/08/04 05:33:53;;;;;;;11.37;7.10;;;19.10;99.90;;;;;;5045376;28;20056;-74
2022/08/04 05:36:21;;;;;;;12.83;6.93;;;19.20;99.90;;;;;;5030142;28;20055;-74
2022/08/04 05:38:51;;;;;;;13.67;6.80;;;19.30;99.90;;;;;;5045697;28;20065;-74
2022/08/04 05:41:17;;;;;;;12.00;7.13;;;19.40;99.90;;;;;;5046797;28;20065;-74
2022/08/04 05:43:44;;;;;;;11.70;7.03;;;19.40;99.90;;;;;;5046847;28;20158;-74
2022/08/04 05:46:12;;;;;;;13.67;7.00;;;19.50;99.90;;;;;;5025782;28;20059;-74
2022/08/04 05:48:39;;;;;;;13.17;7.40;;;19.60;99.90;;;;;;5035586;28;20045;-74
2022/08/04 05:51:09;;;;;;;10.83;7.03;;;19.80;99.90;;;;;;5014021;28;20037;-74
2022/08/04 05:53:36;;;;;;;13.30;7.60;;;19.90;99.90;;;;;;5031104;28;20054;-74
2022/08/04 05:56:03;;;;;;;16.87;7.90;;;20.00;99.90;;;;;;5031304;28;20086;-74
2022/08/04 05:58:30;;;;;;;12.97;7.37;;;20.00;99.90;;;;;;5047528;28;20056;-74
2022/08/04 06:00:58;;;;;;;14.47;7.73;;;20.00;99.90;;;;;;5044999;28;20044;-74
2022/08/04 06:03:26;;;;;;;13.10;8.17;;;20.10;99.90;;;;;;5029034;28;20048;-74
2022/08/04 06:05:53;;;;;;;13.93;8.43;;;20.10;99.90;;;;;;5031400;28;20053;-74
2022/08/04 06:08:20;;;;;;;14.90;8.50;;;20.20;99.90;;;;;;5044117;28;20466;-74
2022/08/04 06:10:48;;;;;;;13.07;8.03;;;20.30;99.90;;;;;;5030726;28;20485;-74
2022/08/04 06:13:18;;;;;;;13.60;8.47;;;20.40;99.90;;;;;;5044617;28;20496;-74
2022/08/04 06:15:47;;;;;;;15.30;8.53;;;20.50;99.90;;;;;;5045998;28;20132;-74
2022/08/04 06:18:13;;;;;;;11.47;7.70;;;20.60;99.90;;;;;;5039314;28;20476;-74
2022/08/04 06:20:41;;;;;;;13.67;8.70;;;20.70;99.90;;;;;;5041999;28;20051;-74
2022/08/04 06:23:10;;;;;;;12.60;8.37;;;20.90;99.90;;;;;;5045356;28;20043;-74
2022/08/04 06:25:40;;;;;;;12.68;8.77;;;21.00;99.90;;;;;;5046052;28;20037;-74
2022/08/04 06:28:07;;;;;;;17.67;8.80;;;21.10;99.90;;;;;;5029440;28;20427;-75
2022/08/04 06:30:34;;;;;;;12.88;8.35;;;21.20;99.90;;;;;;5028119;28;20044;-74
2022/08/04 06:33:02;;;;;;;17.42;8.95;;;21.30;99.90;;;;;;5036883;28;20534;-74
2022/08/04 06:35:30;;;;;;;17.42;9.23;;;21.40;99.90;;;;;;5045022;28;20044;-74
2022/08/04 06:37:56;;;;;;;14.75;9.63;;;21.50;99.90;;;;;;5046699;28;20040;-74
2022/08/04 06:40:24;;;;;;;15.07;9.35;;;21.60;99.90;;;;;;5042762;28;20052;-74
2022/08/04 06:42:52;;;;;;;15.43;8.90;;;21.80;99.90;;;;;;5032295;28;20041;-74
2022/08/04 06:45:19;;;;;;;17.65;9.20;;;21.90;99.90;;;;;;5046467;28;20425;-74
2022/08/04 06:47:46;;;;;;;13.90;8.35;;;22.00;99.90;;;;;;5026445;28;20451;-75
2022/08/04 06:50:13;;;;;;;15.05;8.32;;;22.20;99.90;;;;;;5032546;28;20037;-74
2022/08/04 06:52:39;;;;;;;15.98;8.45;;;22.30;99.90;;;;;;5057672;28;20049;-74
2022/08/04 06:55:07;;;;;;;10.90;7.65;;;22.40;99.90;;;;;;5030780;28;20041;-74
2022/08/04 06:57:34;;;;;;;17.25;8.75;;;22.40;99.90;;;;;;5049244;28;20051;-74
2022/08/04 07:00:08;;;;;;;14.05;8.68;;;22.40;99.90;;;;;;5039101;28;20098;-74
2022/08/04 07:02:37;;;;;;;;;;;22.50;99.90;;;;;;5050257;28;20041;-74
2022/08/04 07:05:05;;;;;;;14.43;9.23;;;22.60;99.90;;;;;;5017973;28;19964;-74
2022/08/04 07:07:31;;;;;;;17.08;9.18;;;22.70;99.90;;;;;;5028706;28;20051;-74
2022/08/04 07:09:58;;;;;;;14.60;7.88;;;22.90;99.90;;;;;;5029667;28;20049;-74
2022/08/04 07:12:24;;;;;;;19.67;8.65;;;23.10;99.90;;;;;;5020749;28;20041;-74
2022/08/04 07:14:50;;;;;;;14.10;7.22;;;23.30;99.90;;;;;;5030551;28;20074;-74
2022/08/04 07:17:19;;;;;;;13.18;7.47;;;23.40;99.90;;;;;;5042739;28;20041;-73
2022/08/04 07:19:45;;;;;;;11.60;7.47;;;23.40;99.90;;;;;;5030095;28;20037;-74
2022/08/04 07:22:12;;;;;;;11.80;6.97;;;23.50;99.90;;;;;;5049944;28;20036;-75
2022/08/04 07:24:40;;;;;;;15.60;6.68;;;23.50;99.90;;;;;;5041772;28;20132;-74
2022/08/04 07:27:05;;;;;;;15.20;5.97;;;23.60;99.90;;;;;;5065808;28;20541;-75
2022/08/04 07:29:33;;;;;;;10.80;5.93;;;23.70;99.90;;;;;;5035887;28;20049;-75
2022/08/04 07:32:00;;;;;;;16.63;6.20;;;23.70;99.90;;;;;;5063650;28;20033;-74
2022/08/04 07:34:28;;;;;;;10.95;6.47;;;23.80;99.90;;;;;;5022735;28;20064;-74
2022/08/04 07:36:56;;;;;;;10.57;5.97;;;23.90;99.90;;;;;;5017178;28;20044;-74
2022/08/04 07:39:24;;;;;;;11.45;5.53;;;23.90;99.90;;;;;;5054076;28;20067;-75
2022/08/04 07:41:51;;;;;;;10.52;5.05;;;24.10;99.90;;;;;;5065761;28;20450;-75
2022/08/04 07:44:17;;;;;;;12.13;4.78;;;24.10;99.90;;;;;;5035245;28;20504;-75
2022/08/04 07:46:45;;;;;;;13.75;5.00;;;24.30;99.90;;;;;;5032328;28;20042;-74
2022/08/04 07:49:11;;;;;;;12.38;4.55;;;24.40;99.90;;;;;;5035771;28;20049;-74
2022/08/04 07:51:39;;;;;;;8.48;4.78;;;24.50;99.90;;;;;;5025725;28;20033;-74
2022/08/04 07:54:08;;;;;;;11.45;5.05;;;24.60;99.90;;;;;;5037539;28;20057;-74
2022/08/04 07:56:35;;;;;;;12.65;5.10;;;24.70;99.90;;;;;;5033831;28;20489;-74
2022/08/04 07:59:02;;;;;;;11.88;4.80;;;24.80;99.90;;;;;;5022320;28;20041;-75
2022/08/04 08:01:28;;;;;;;10.10;5.15;;;24.90;99.90;;;;;;5043369;28;20033;-74
2022/08/04 08:03:56;;;;;;;13.88;5.18;;;25.00;99.90;;;;;;5018080;28;20106;-74
2022/08/04 08:06:22;;;;;;;13.32;5.15;;;25.20;99.90;;;;;;5024485;28;20044;-75
2022/08/04 08:08:49;;;;;;;12.18;4.75;;;25.30;99.90;;;;;;5033265;28;20066;-74
2022/08/04 08:11:15;;;;;;;17.77;4.97;;;25.40;99.90;;;;;;5049759;28;20504;-75
2022/08/04 08:13:42;;;;;;;9.07;3.78;;;25.60;99.90;;;;;;5045472;28;20079;-74
2022/08/04 08:16:09;;;;;;;11.70;4.57;;;25.60;99.90;;;;;;5014927;28;20045;-75
2022/08/04 08:18:35;;;;;;;10.38;3.97;;;25.70;99.90;;;;;;5006543;28;20139;-74
2022/08/04 08:21:01;;;;;;;8.40;4.07;;;25.80;99.90;;;;;;5012177;28;20544;-74
2022/08/04 08:23:30;;;;;;;10.93;3.97;;;26.00;99.90;;;;;;5045170;28;20072;-74
2022/08/04 08:25:58;;;;;;;12.82;3.63;;;26.20;99.90;;;;;;5063911;28;20044;-75
2022/08/04 08:28:24;;;;;;;9.50;3.47;;;26.30;99.90;;;;;;5028042;28;20060;-74
2022/08/04 08:30:50;;;;;;;14.85;3.80;;;26.50;99.90;;;;;;5032061;28;20091;-74
2022/08/04 08:33:16;;;;;;;9.27;3.35;;;26.60;99.90;;;;;;5018043;28;20045;-74
2022/08/04 08:35:51;;;;;;;10.52;3.38;;;26.70;99.90;;;;;;5032718;28;20045;-76
2022/08/04 08:38:20;;;;;;;10.05;3.50;;;26.80;99.90;;;;;;5057790;28;20084;-74
2022/08/04 08:40:52;;;;;;;12.73;3.75;;;26.90;99.90;;;;;;5032222;28;20045;-75
2022/08/04 08:43:42;;;;;;;12.23;3.47;;;27.10;99.90;;;;;;5034199;28;20041;-75
2022/08/04 08:46:27;;;;;;;14.10;3.35;;;27.20;99.90;;;;;;5052059;28;20055;-72
2022/08/04 08:49:08;;;;;;;10.70;3.72;;;27.20;99.90;;;;;;5041957;28;20036;-74
2022/08/04 08:51:43;;;;;;;11.48;3.70;;;27.30;99.90;;;;;;5041994;28;20064;-75
2022/08/04 08:54:36;;;;;;;11.55;3.28;;;27.30;99.90;;;;;;5039631;28;20048;-74
2022/08/04 08:57:18;;;;;;;9.98;3.50;;;27.40;99.90;;;;;;5016944;28;20045;-75
2022/08/04 09:00:00;;;;;;;11.00;3.55;;;27.60;99.90;;;;;;5034079;28;20044;-75
2022/08/04 09:02:48;;;;;;;11.60;3.30;;;27.70;99.90;;;;;;5040149;28;20069;-74
2022/08/04 09:05:27;;;;;;;11.57;3.13;;;27.70;99.90;;;;;;5038153;28;20084;-74
2022/08/04 09:08:06;;;;;;;9.35;3.45;;;27.80;99.90;;;;;;5030376;28;20047;-76
2022/08/04 09:10:39;;;;;;;6.20;2.85;;;27.90;99.90;;;;;;5026483;28;20038;-75
2022/08/04 09:13:12;;;;;;;8.90;3.28;;;28.00;99.90;;;;;;5044296;28;20252;-73
2022/08/04 09:15:48;;;;;;;11.15;2.97;;;28.00;99.90;;;;;;5041062;28;20072;-74
2022/08/04 09:18:20;;;;;;;8.70;2.90;;;28.20;99.90;;;;;;5058111;28;20049;-75
2022/08/04 09:20:50;;;;;;;9.90;3.00;;;28.40;99.90;;;;;;5041296;28;20153;-76
2022/08/04 09:23:23;;;;;;;10.60;2.80;;;28.60;99.90;;;;;;5033137;28;20596;-74
2022/08/04 09:25:57;;;;;;;12.40;3.22;;;28.70;99.90;;;;;;5037305;28;20049;-75
2022/08/04 09:28:24;;;;;;;9.38;3.00;;;28.70;99.90;;;;;;5025785;28;20728;-75
2022/08/04 09:30:56;;;;;;;11.07;3.47;;;28.90;99.90;;;;;;5046668;28;20037;-74
2022/08/04 09:33:33;;;;;;;8.95;3.38;;;29.10;99.90;;;;;;5035026;28;20679;-76
2022/08/04 09:36:06;;;;;;;9.32;3.30;;;29.30;99.90;;;;;;5017605;28;20060;-75
2022/08/04 09:38:37;;;;;;;11.90;3.33;;;29.50;99.00;;;;;;5015790;28;20049;-75
2022/08/04 09:41:15;;;;;;;8.10;3.00;;;29.70;99.90;;;;;;5048019;28;20037;-73
2022/08/04 09:43:55;;;;;;;11.27;3.38;;;30.00;99.00;;;;;;5010214;28;20037;-75
2022/08/04 09:46:28;;;;;;;6.03;3.00;;;30.00;98.80;;;;;;5056926;28;20052;-74
2022/08/04 09:48:58;;;;;;;8.10;3.20;;;30.10;98.20;;;;;;5038777;28;20566;-75
2022/08/04 09:51:37;;;;;;;7.82;2.80;;;30.30;97.70;;;;;;5040847;28;20658;-74
2022/08/04 09:54:11;;;;;;;10.82;2.88;;;30.50;97.80;;;;;;5015660;28;20072;-74
2022/08/04 09:56:41;;;;;;;8.45;2.92;;;30.90;98.00;;;;;;5027520;28;20478;-74
2022/08/04 09:59:20;;;;;;;10.15;3.55;;;31.00;98.20;;;;;;5036639;28;20048;-77
2022/08/04 10:01:52;;;;;;;9.27;3.50;;;30.80;95.60;;;;;;5047585;28;20416;-75
2022/08/04 10:04:19;;;;;;;12.45;3.60;;;30.50;96.00;;;;;;5041971;28;20052;-75
2022/08/04 10:07:03;;;;;;;9.73;3.13;;;30.30;95.90;;;;;;5029532;28;20416;-75
2022/08/04 10:09:42;;;;;;;14.55;3.83;;;30.10;95.70;;;;;;5030668;28;20070;-73
2022/08/04 10:12:25;;;;;;;7.88;3.30;;;29.80;96.70;;;;;;5032455;28;20037;-75
2022/08/04 10:14:57;;;;;;;8.73;3.50;;;29.70;97.70;;;;;;5020038;28;20119;-75
2022/08/04 10:17:41;;;;;;;14.63;3.70;;;29.50;98.50;;;;;;5064116;28;20041;-74
2022/08/04 10:20:12;;;;;;;10.05;3.25;;;30.00;99.10;;;;;;5019130;28;20497;-74
2022/08/04 10:22:42;;;;;;;11.15;3.45;;;30.80;98.90;;;;;;5024219;28;20427;-76
2022/08/04 10:25:20;;;;;;;7.95;3.30;;;31.40;97.90;;;;;;5038800;28;20041;-76
2022/08/04 10:27:50;;;;;;;8.10;3.30;;;31.90;96.40;;;;;;5035809;28;20041;-77
2022/08/04 10:30:19;;;;;;;7.90;2.90;;;31.90;95.40;;;;;;5038224;28;20087;-76
2022/08/04 10:32:51;;;;;;;5.85;2.70;;;31.80;95.00;;;;;;5014179;28;20044;-76
2022/08/04 10:35:20;;;;;;;6.47;2.92;;;32.00;94.90;;;;;;5041955;28;20045;-75
2022/08/04 10:37:59;;;;;;;6.40;2.80;;;32.50;94.40;;;;;;5021887;28;20048;-75
2022/08/04 10:40:36;;;;;;;9.23;2.70;;;32.40;93.50;;;;;;5033978;28;20048;-75
2022/08/04 10:43:08;;;;;;;7.78;2.80;;;32.00;93.00;;;;;;5038288;28;20048;-74
2022/08/04 10:45:40;;;;;;;7.47;2.42;;;31.70;93.30;;;;;;5016882;28;20037;-75
2022/08/04 10:48:21;;;;;;;7.85;2.50;;;31.70;93.40;;;;;;5037194;28;20033;-75
2022/08/04 10:51:02;;;;;;;7.40;2.85;;;32.00;93.50;;;;;;5015987;28;20053;-75
2022/08/04 10:53:30;;;;;;;9.32;2.80;;;32.10;93.60;;;;;;5027262;28;20103;-74
2022/08/04 10:56:02;;;;;;;5.95;2.92;;;32.30;93.10;;;;;;5019568;28;20050;-75
2022/08/04 10:58:35;;;;;;;8.93;2.70;;;32.50;92.60;;;;;;5027742;28;20033;-76
2022/08/04 11:01:08;;;;;;;10.50;3.03;;;32.60;91.70;;;;;;5061802;28;20517;-74
2022/08/04 11:03:44;;;;;;;8.32;2.78;;;32.70;92.00;;;;;;5045780;28;20041;-74
2022/08/04 11:06:10;;;;;;;7.75;2.67;;;32.60;92.10;;;;;;5025756;28;20079;-75
2022/08/04 11:08:41;;;;;;;9.18;3.13;;;32.40;92.20;;;;;;5032824;28;20467;-75
2022/08/04 11:11:13;;;;;;;5.97;2.30;;;32.20;91.70;;;;;;5037863;28;20154;-75
2022/08/04 11:13:44;;;;;;;7.28;2.45;;;31.90;92.30;;;;;;5017657;28;20110;-76
2022/08/04 11:16:18;;;;;;;6.63;2.00;;;31.90;93.10;;;;;;5034572;28;20493;-76
2022/08/04 11:18:57;;;;;;;9.05;2.40;;;32.10;93.30;;;;;;5049134;28;20140;-75
2022/08/04 11:21:27;;;;;;;10.57;1.92;;;32.30;92.20;;;;;;5034210;28;20042;-76
2022/08/04 11:24:00;;;;;;;7.35;2.22;;;32.50;91.80;;;;;;5041584;28;20041;-75
2022/08/04 11:26:35;;;;;;;4.68;1.90;;;32.50;91.70;;;;;;5054762;28;20640;-75
2022/08/04 11:29:10;;;;;;;10.85;2.10;;;32.10;91.40;;;;;;5033780;28;20038;-77
2022/08/04 11:31:42;;;;;;;8.40;2.00;;;31.50;91.30;;;;;;5026756;28;20065;-75
2022/08/04 11:34:18;;;;;;;8.52;1.98;;;31.00;91.80;;;;;;5030452;28;20094;-75
2022/08/04 11:36:50;;;;;;;5.60;1.90;;;30.80;92.40;;;;;;5039003;28;20401;-75
2022/08/04 11:39:24;;;;;;;8.02;2.00;;;30.70;92.10;;;;;;5032221;28;20576;-75
2022/08/04 11:41:55;;;;;;;7.50;1.77;;;30.80;92.70;;;;;;5035272;28;20049;-74
2022/08/04 11:44:30;;;;;;;10.10;2.25;;;30.90;92.90;;;;;;5019476;28;20064;-75
2022/08/04 11:47:01;;;;;;;8.98;1.83;;;30.90;93.10;;;;;;5021463;28;20037;-75
2022/08/04 11:49:33;;;;;;;7.63;2.00;;;30.70;93.40;;;;;;5046113;28;20077;-74
2022/08/04 11:52:02;;;;;;;9.35;1.95;;;30.40;93.60;;;;;;5037061;28;20052;-74
2022/08/04 11:54:29;;;;;;;8.65;1.92;;;30.10;93.70;;;;;;5042060;28;20048;-75
2022/08/04 11:56:55;;;;;;;6.45;1.88;;;29.70;94.00;;;;;;5021346;28;20041;-74
2022/08/04 11:59:23;;;;;;;6.03;1.77;;;29.40;94.80;;;;;;5046193;28;20055;-74
2022/08/04 12:02:01;;;;;;;6.47;1.85;;;29.10;95.20;;;;;;5048117;28;20045;-74
2022/08/04 12:04:40;;;;;;;6.15;2.20;;;28.90;96.20;;;;;;5051170;28;20147;-75
2022/08/04 12:07:16;;;;;;;7.13;2.20;;;28.60;97.10;;;;;;5015474;28;20045;-74
2022/08/04 12:09:51;;;;;;;5.68;2.17;;;28.50;97.80;;;;;;5016175;28;20037;-74
2022/08/04 12:12:26;;;;;;;6.10;1.85;;;28.30;98.10;;;;;;5039059;28;20038;-74
2022/08/04 12:14:58;;;;;;;4.78;2.05;;;28.20;98.60;;;;;;5013850;28;20044;-74
2022/08/04 12:17:30;;;;;;;6.13;1.65;;;28.10;98.90;;;;;;5021845;28;20376;-73
2022/08/04 12:20:02;;;;;;;6.10;1.65;;;27.90;99.70;;;;;;5040128;28;20673;-75
2022/08/04 12:22:34;;;;;;;7.28;1.75;;;27.70;99.90;;;;;;5042126;28;20045;-75
2022/08/04 12:25:04;;;;;;;3.40;1.27;;;27.60;99.90;;;;;;5033294;28;20167;-75
2022/08/04 12:27:33;;;;;;;6.55;1.13;;;27.40;99.70;;;;;;5018218;28;20045;-75
2022/08/04 12:30:00;;;;;;;4.80;1.38;;;27.20;99.20;;;;;;5040732;28;20132;-74
2022/08/04 12:32:35;;;;;;;4.30;1.50;;;27.00;99.40;;;;;;5029973;28;20056;-73
2022/08/04 12:35:11;;;;;;;3.65;1.38;;;26.80;99.90;;;;;;5032768;28;20042;-75
2022/08/04 12:37:47;;;;;;;4.43;1.70;;;26.70;99.90;;;;;;5023710;28;20139;-75
2022/08/04 12:40:17;;;;;;;4.82;1.20;;;26.50;99.90;;;;;;5028508;28;20381;-76
2022/08/04 12:42:49;;;;;;;4.10;1.42;;;26.40;99.90;;;;;;5036814;28;20064;-74
2022/08/04 12:45:16;;;;;;;9.18;1.70;;;26.20;99.90;;;;;;5041300;28;20532;-74
2022/08/04 12:47:45;;;;;;;5.60;1.52;;;26.00;99.90;;;;;;5041527;28;20083;-74
2022/08/04 12:50:14;;;;;;;3.28;1.40;;;25.90;99.90;;;;;;5031015;28;20662;-74
2022/08/04 12:52:46;;;;;;;5.13;1.35;;;25.80;99.90;;;;;;5039625;28;20045;-74
2022/08/04 12:55:13;;;;;;;5.50;2.00;;;25.80;99.90;;;;;;5035999;28;20103;-74
2022/08/04 12:57:41;;;;;;;7.63;1.70;;;25.90;99.90;;;;;;5032302;28;20044;-74
2022/08/04 13:00:08;;;;;;;4.32;1.20;;;25.90;99.90;;;;;;5045359;28;20537;-73
2022/08/04 13:02:40;;;;;;;8.98;1.75;;;26.00;99.90;;;;;;5017113;28;20064;-74
2022/08/04 13:05:08;;;;;;;4.25;1.42;;;26.10;99.90;;;;;;4998432;28;20164;-74
2022/08/04 13:07:40;;;;;;;6.03;1.73;;;26.10;99.90;;;;;;5031297;28;20056;-75
2022/08/04 13:10:11;;;;;;;4.30;1.70;;;26.30;99.90;;;;;;5054232;28;20147;-74
2022/08/04 13:12:38;;;;;;;6.30;1.65;;;26.40;99.90;;;;;;5042240;28;20100;-75
2022/08/04 13:15:08;;;;;;;5.60;1.85;;;26.50;99.90;;;;;;5047973;28;20045;-74
2022/08/04 13:17:48;;;;;;;3.50;1.65;;;26.70;99.90;;;;;;5029882;28;20410;-74
2022/08/04 13:20:14;;;;;;;7.28;1.88;;;27.00;99.90;;;;;;5050564;28;20051;-74